sensor_id;sensor_type;location;lat;lon;timestamp;P1;durP1;ratioP1;P2;durP2;ratioP2
6757;SDS011;3416;53.074;8.822;2024-02-21T01:24:35;37.92;;;23.75;;
6757;SDS011;3416;53.074;8.822;2024-02-21T01:27:02;42.40;;;25.15;;
6757;SDS011;3416;53.074;8.822;2024-02-21T01:29:29;39.63;;;24.92;;
6757;SDS011;3416;53.074;8.822;2024-02-21T01:31:56;43.40;;;26.77;;
6757;SDS011;3416;53.074;8.822;2024-02-21T01:34:23;45.08;;;25.17;;
6757;SDS011;3416;53.074;8.822;2024-02-21T01:36:50;35.63;;;24.05;;
6757;SDS011;3416;53.074;8.822;2024-02-21T01:39:17;32.90;;;21.98;;
6757;SDS011;3416;53.074;8.822;2024-02-21T01:41:45;37.88;;;24.90;;
6757;SDS011;3416;53.074;8.822;2024-02-21T01:44:13;39.42;;;24.75;;
6757;SDS011;3416;53.074;8.822;2024-02-21T01:46:40;44.50;;;23.80;;
6757;SDS011;3416;53.074;8.822;2024-02-21T01:49:08;52.03;;;24.30;;
6757;SDS011;3416;53.074;8.822;2024-02-21T01:51:35;42.30;;;21.85;;
6757;SDS011;3416;53.074;8.822;2024-02-21T01:54:02;39.38;;;23.83;;
6757;SDS011;3416;53.074;8.822;2024-02-21T01:56:29;31.83;;;22.60;;
6757;SDS011;3416;53.074;8.822;2024-02-21T01:58:58;33.22;;;22.42;;
6757;SDS011;3416;53.074;8.822;2024-02-21T02:01:26;36.75;;;22.52;;
6757;SDS011;3416;53.074;8.822;2024-02-21T02:03:53;35.63;;;21.10;;
6757;SDS011;3416;53.074;8.822;2024-02-21T02:06:21;35.00;;;21.65;;
6757;SDS011;3416;53.074;8.822;2024-02-21T02:08:48;40.00;;;21.77;;
6757;SDS011;3416;53.074;8.822;2024-02-21T02:11:15;38.03;;;24.63;;
6757;SDS011;3416;53.074;8.822;2024-02-21T02:13:43;39.08;;;21.95;;
6757;SDS011;3416;53.074;8.822;2024-02-21T02:16:11;33.85;;;21.85;;
6757;SDS011;3416;53.074;8.822;2024-02-21T02:18:38;34.78;;;21.70;;
6757;SDS011;3416;53.074;8.822;2024-02-21T02:21:07;42.53;;;22.40;;
6757;SDS011;3416;53.074;8.822;2024-02-21T02:23:41;40.38;;;23.52;;
6757;SDS011;3416;53.074;8.822;2024-02-21T02:26:08;47.08;;;24.55;;
6757;SDS011;3416;53.074;8.822;2024-02-21T02:28:35;40.53;;;22.55;;
6757;SDS011;3416;53.074;8.822;2024-02-21T02:31:02;39.80;;;23.85;;
6757;SDS011;3416;53.074;8.822;2024-02-21T02:33:29;38.15;;;23.15;;
6757;SDS011;3416;53.074;8.822;2024-02-21T02:35:56;38.95;;;22.70;;
6757;SDS011;3416;53.074;8.822;2024-02-21T02:38:24;38.40;;;22.58;;
6757;SDS011;3416;53.074;8.822;2024-02-21T02:40:52;37.50;;;21.55;;
6757;SDS011;3416;53.074;8.822;2024-02-21T02:43:19;36.72;;;22.00;;
6757;SDS011;3416;53.074;8.822;2024-02-21T02:45:46;41.17;;;22.38;;
6757;SDS011;3416;53.074;8.822;2024-02-21T02:48:13;36.30;;;22.52;;
6757;SDS011;3416;53.074;8.822;2024-02-21T02:50:40;40.92;;;21.80;;
6757;SDS011;3416;53.074;8.822;2024-02-21T02:53:07;42.47;;;24.70;;
6757;SDS011;3416;53.074;8.822;2024-02-21T02:55:34;41.17;;;23.00;;
6757;SDS011;3416;53.074;8.822;2024-02-21T02:58:03;32.78;;;21.60;;
6757;SDS011;3416;53.074;8.822;2024-02-21T03:00:30;40.60;;;23.27;;
6757;SDS011;3416;53.074;8.822;2024-02-21T03:03:01;41.47;;;23.02;;
6757;SDS011;3416;53.074;8.822;2024-02-21T03:05:29;41.70;;;23.42;;
6757;SDS011;3416;53.074;8.822;2024-02-21T03:07:56;33.63;;;23.00;;
6757;SDS011;3416;53.074;8.822;2024-02-21T03:10:23;35.95;;;22.13;;
6757;SDS011;3416;53.074;8.822;2024-02-21T03:12:51;34.90;;;21.27;;
6757;SDS011;3416;53.074;8.822;2024-02-21T03:15:20;38.83;;;23.00;;
6757;SDS011;3416;53.074;8.822;2024-02-21T03:17:47;39.22;;;23.02;;
6757;SDS011;3416;53.074;8.822;2024-02-21T03:20:14;43.10;;;21.05;;
6757;SDS011;3416;53.074;8.822;2024-02-21T03:22:41;41.33;;;24.95;;
6757;SDS011;3416;53.074;8.822;2024-02-21T03:25:08;31.40;;;22.35;;
6757;SDS011;3416;53.074;8.822;2024-02-21T03:27:36;40.35;;;22.45;;
6757;SDS011;3416;53.074;8.822;2024-02-21T03:30:03;28.63;;;20.38;;
6757;SDS011;3416;53.074;8.822;2024-02-21T03:32:32;39.80;;;21.30;;
6757;SDS011;3416;53.074;8.822;2024-02-21T03:35:00;37.55;;;24.05;;
6757;SDS011;3416;53.074;8.822;2024-02-21T03:37:27;40.17;;;22.08;;
6757;SDS011;3416;53.074;8.822;2024-02-21T03:39:54;31.65;;;20.65;;
6757;SDS011;3416;53.074;8.822;2024-02-21T03:42:21;36.72;;;22.20;;
6757;SDS011;3416;53.074;8.822;2024-02-21T03:44:47;28.08;;;21.05;;
6757;SDS011;3416;53.074;8.822;2024-02-21T03:47:14;35.40;;;23.30;;
6757;SDS011;3416;53.074;8.822;2024-02-21T03:49:43;39.10;;;23.92;;
6757;SDS011;3416;53.074;8.822;2024-02-21T03:52:10;39.40;;;22.42;;
6757;SDS011;3416;53.074;8.822;2024-02-21T03:54:37;39.83;;;23.15;;
6757;SDS011;3416;53.074;8.822;2024-02-21T03:57:04;37.75;;;23.23;;
6757;SDS011;3416;53.074;8.822;2024-02-21T03:59:31;44.47;;;28.70;;
6757;SDS011;3416;53.074;8.822;2024-02-21T04:01:58;40.33;;;21.65;;
6757;SDS011;3416;53.074;8.822;2024-02-21T04:04:25;40.53;;;26.00;;
6757;SDS011;3416;53.074;8.822;2024-02-21T04:06:54;49.17;;;25.95;;
6757;SDS011;3416;53.074;8.822;2024-02-21T04:09:21;37.70;;;23.90;;
6757;SDS011;3416;53.074;8.822;2024-02-21T04:11:48;41.53;;;24.35;;
6757;SDS011;3416;53.074;8.822;2024-02-21T04:14:15;42.03;;;23.50;;
6757;SDS011;3416;53.074;8.822;2024-02-21T04:16:42;44.58;;;27.15;;
6757;SDS011;3416;53.074;8.822;2024-02-21T04:19:09;42.58;;;25.67;;
6757;SDS011;3416;53.074;8.822;2024-02-21T04:21:36;52.50;;;29.20;;
6757;SDS011;3416;53.074;8.822;2024-02-21T04:24:05;42.78;;;26.70;;
6757;SDS011;3416;53.074;8.822;2024-02-21T04:26:32;41.83;;;26.30;;
6757;SDS011;3416;53.074;8.822;2024-02-21T04:28:59;47.08;;;25.25;;
6757;SDS011;3416;53.074;8.822;2024-02-21T04:31:26;47.90;;;25.70;;
6757;SDS011;3416;53.074;8.822;2024-02-21T04:33:53;47.85;;;25.10;;
6757;SDS011;3416;53.074;8.822;2024-02-21T04:36:20;41.60;;;25.48;;
6757;SDS011;3416;53.074;8.822;2024-02-21T04:38:47;45.63;;;24.08;;
6757;SDS011;3416;53.074;8.822;2024-02-21T04:41:16;41.83;;;25.05;;
6757;SDS011;3416;53.074;8.822;2024-02-21T04:43:45;42.97;;;25.73;;
6757;SDS011;3416;53.074;8.822;2024-02-21T04:46:12;42.28;;;23.98;;
6757;SDS011;3416;53.074;8.822;2024-02-21T04:48:39;44.50;;;26.40;;
6757;SDS011;3416;53.074;8.822;2024-02-21T04:51:06;39.92;;;24.73;;
6757;SDS011;3416;53.074;8.822;2024-02-21T04:53:33;41.17;;;25.65;;
6757;SDS011;3416;53.074;8.822;2024-02-21T04:56:03;42.40;;;25.73;;
6757;SDS011;3416;53.074;8.822;2024-02-21T04:58:32;40.65;;;26.02;;
6757;SDS011;3416;53.074;8.822;2024-02-21T05:00:59;41.40;;;25.90;;
6757;SDS011;3416;53.074;8.822;2024-02-21T05:03:26;36.42;;;22.48;;
6757;SDS011;3416;53.074;8.822;2024-02-21T05:05:53;37.55;;;24.67;;
6757;SDS011;3416;53.074;8.822;2024-02-21T05:08:20;42.17;;;22.83;;
6757;SDS011;3416;53.074;8.822;2024-02-21T05:10:47;40.95;;;24.73;;
6757;SDS011;3416;53.074;8.822;2024-02-21T05:13:13;40.85;;;25.67;;
6757;SDS011;3416;53.074;8.822;2024-02-21T05:15:42;33.13;;;23.92;;
6757;SDS011;3416;53.074;8.822;2024-02-21T05:18:09;38.60;;;23.77;;
6757;SDS011;3416;53.074;8.822;2024-02-21T05:20:36;46.72;;;24.40;;
6757;SDS011;3416;53.074;8.822;2024-02-21T05:23:03;44.20;;;24.77;;
6757;SDS011;3416;53.074;8.822;2024-02-21T05:25:30;35.80;;;23.13;;
6757;SDS011;3416;53.074;8.822;2024-02-21T05:27:57;39.95;;;24.23;;
6757;SDS011;3416;53.074;8.822;2024-02-21T05:30:27;33.17;;;21.27;;
6757;SDS011;3416;53.074;8.822;2024-02-21T05:32:55;39.22;;;21.40;;
6757;SDS011;3416;53.074;8.822;2024-02-21T05:35:24;41.08;;;23.88;;
6757;SDS011;3416;53.074;8.822;2024-02-21T05:37:52;29.05;;;20.40;;
6757;SDS011;3416;53.074;8.822;2024-02-21T05:40:19;36.03;;;21.90;;
6757;SDS011;3416;53.074;8.822;2024-02-21T05:42:46;42.20;;;22.48;;
6757;SDS011;3416;53.074;8.822;2024-02-21T05:45:13;30.63;;;19.98;;
6757;SDS011;3416;53.074;8.822;2024-02-21T05:47:41;34.75;;;21.70;;
6757;SDS011;3416;53.074;8.822;2024-02-21T05:50:09;38.88;;;22.13;;
6757;SDS011;3416;53.074;8.822;2024-02-21T05:52:37;24.55;;;16.65;;
6757;SDS011;3416;53.074;8.822;2024-02-21T05:55:06;36.20;;;24.60;;
6757;SDS011;3416;53.074;8.822;2024-02-21T05:57:34;29.35;;;19.73;;
6757;SDS011;3416;53.074;8.822;2024-02-21T06:00:02;24.85;;;18.02;;
6757;SDS011;3416;53.074;8.822;2024-02-21T06:02:31;28.20;;;19.75;;
6757;SDS011;3416;53.074;8.822;2024-02-21T06:04:58;32.97;;;20.55;;
6757;SDS011;3416;53.074;8.822;2024-02-21T06:07:26;27.15;;;17.67;;
6757;SDS011;3416;53.074;8.822;2024-02-21T06:09:54;26.67;;;18.42;;
6757;SDS011;3416;53.074;8.822;2024-02-21T06:12:21;23.75;;;17.10;;
6757;SDS011;3416;53.074;8.822;2024-02-21T06:14:48;26.33;;;18.50;;
6757;SDS011;3416;53.074;8.822;2024-02-21T06:17:15;28.73;;;18.35;;
6757;SDS011;3416;53.074;8.822;2024-02-21T06:19:42;29.15;;;18.75;;
6757;SDS011;3416;53.074;8.822;2024-02-21T06:22:10;30.60;;;17.92;;
6757;SDS011;3416;53.074;8.822;2024-02-21T06:24:38;26.08;;;17.90;;
6757;SDS011;3416;53.074;8.822;2024-02-21T06:27:05;31.55;;;18.38;;
6757;SDS011;3416;53.074;8.822;2024-02-21T06:29:33;26.77;;;17.67;;
6757;SDS011;3416;53.074;8.822;2024-02-21T06:32:00;25.00;;;16.95;;
6757;SDS011;3416;53.074;8.822;2024-02-21T06:34:28;33.15;;;19.95;;
6757;SDS011;3416;53.074;8.822;2024-02-21T06:36:55;28.70;;;18.60;;
6757;SDS011;3416;53.074;8.822;2024-02-21T06:39:23;26.42;;;19.60;;
6757;SDS011;3416;53.074;8.822;2024-02-21T06:41:51;39.67;;;21.55;;
6757;SDS011;3416;53.074;8.822;2024-02-21T06:44:19;28.58;;;18.65;;
6757;SDS011;3416;53.074;8.822;2024-02-21T06:46:47;31.42;;;22.00;;
6757;SDS011;3416;53.074;8.822;2024-02-21T06:49:14;29.40;;;21.38;;
6757;SDS011;3416;53.074;8.822;2024-02-21T06:51:41;30.58;;;20.58;;
6757;SDS011;3416;53.074;8.822;2024-02-21T06:54:09;32.42;;;22.25;;
6757;SDS011;3416;53.074;8.822;2024-02-21T06:56:36;28.55;;;19.02;;
6757;SDS011;3416;53.074;8.822;2024-02-21T06:59:05;35.97;;;21.08;;
6757;SDS011;3416;53.074;8.822;2024-02-21T07:01:33;27.33;;;19.02;;
6757;SDS011;3416;53.074;8.822;2024-02-21T07:04:00;31.27;;;21.48;;
6757;SDS011;3416;53.074;8.822;2024-02-21T07:06:27;36.03;;;23.65;;
6757;SDS011;3416;53.074;8.822;2024-02-21T07:08:57;37.75;;;22.60;;
6757;SDS011;3416;53.074;8.822;2024-02-21T07:11:24;30.45;;;21.65;;
6757;SDS011;3416;53.074;8.822;2024-02-21T07:13:51;34.53;;;19.60;;
6757;SDS011;3416;53.074;8.822;2024-02-21T07:16:20;33.15;;;23.85;;
6757;SDS011;3416;53.074;8.822;2024-02-21T07:18:47;29.50;;;21.65;;
6757;SDS011;3416;53.074;8.822;2024-02-21T07:21:14;39.60;;;23.40;;
6757;SDS011;3416;53.074;8.822;2024-02-21T07:23:41;37.72;;;23.17;;
6757;SDS011;3416;53.074;8.822;2024-02-21T07:26:08;36.83;;;23.80;;
6757;SDS011;3416;53.074;8.822;2024-02-21T07:28:35;34.05;;;20.27;;
6757;SDS011;3416;53.074;8.822;2024-02-21T07:31:02;33.58;;;22.55;;
6757;SDS011;3416;53.074;8.822;2024-02-21T07:33:31;42.72;;;22.70;;
6757;SDS011;3416;53.074;8.822;2024-02-21T07:35:58;31.67;;;21.95;;
6757;SDS011;3416;53.074;8.822;2024-02-21T07:38:25;36.95;;;22.70;;
6757;SDS011;3416;53.074;8.822;2024-02-21T07:40:52;32.22;;;21.40;;
6757;SDS011;3416;53.074;8.822;2024-02-21T07:43:19;35.72;;;23.75;;
6757;SDS011;3416;53.074;8.822;2024-02-21T07:45:47;29.48;;;20.60;;
6757;SDS011;3416;53.074;8.822;2024-02-21T07:48:14;36.05;;;22.92;;
6757;SDS011;3416;53.074;8.822;2024-02-21T07:50:43;35.80;;;24.17;;
6757;SDS011;3416;53.074;8.822;2024-02-21T07:53:10;35.33;;;23.45;;
6757;SDS011;3416;53.074;8.822;2024-02-21T07:55:37;45.53;;;26.10;;
6757;SDS011;3416;53.074;8.822;2024-02-21T07:58:04;43.22;;;26.02;;
6757;SDS011;3416;53.074;8.822;2024-02-21T08:00:31;40.45;;;25.52;;
6757;SDS011;3416;53.074;8.822;2024-02-21T08:02:58;42.15;;;26.90;;
6757;SDS011;3416;53.074;8.822;2024-02-21T08:05:25;42.95;;;26.42;;
6757;SDS011;3416;53.074;8.822;2024-02-21T08:07:53;43.45;;;27.48;;
6757;SDS011;3416;53.074;8.822;2024-02-21T08:10:20;50.92;;;26.80;;
6757;SDS011;3416;53.074;8.822;2024-02-21T08:12:47;54.90;;;30.08;;
6757;SDS011;3416;53.074;8.822;2024-02-21T08:15:14;47.03;;;26.63;;
6757;SDS011;3416;53.074;8.822;2024-02-21T08:17:41;49.05;;;27.75;;
6757;SDS011;3416;53.074;8.822;2024-02-21T08:20:09;53.10;;;27.70;;
6757;SDS011;3416;53.074;8.822;2024-02-21T08:22:37;40.13;;;26.83;;
6757;SDS011;3416;53.074;8.822;2024-02-21T08:25:06;46.42;;;27.25;;
6757;SDS011;3416;53.074;8.822;2024-02-21T08:27:33;39.40;;;24.35;;
6757;SDS011;3416;53.074;8.822;2024-02-21T08:30:00;48.92;;;25.58;;
6757;SDS011;3416;53.074;8.822;2024-02-21T08:32:26;44.53;;;26.98;;
6757;SDS011;3416;53.074;8.822;2024-02-21T08:34:55;43.20;;;24.52;;
6757;SDS011;3416;53.074;8.822;2024-02-21T08:37:22;50.85;;;28.48;;
6757;SDS011;3416;53.074;8.822;2024-02-21T08:39:49;56.22;;;26.48;;
6757;SDS011;3416;53.074;8.822;2024-02-21T08:42:17;50.65;;;28.55;;
6757;SDS011;3416;53.074;8.822;2024-02-21T08:44:44;41.10;;;27.17;;
6757;SDS011;3416;53.074;8.822;2024-02-21T08:47:11;40.28;;;23.65;;
6757;SDS011;3416;53.074;8.822;2024-02-21T08:49:40;41.33;;;25.45;;
6757;SDS011;3416;53.074;8.822;2024-02-21T08:52:07;37.65;;;25.60;;
6757;SDS011;3416;53.074;8.822;2024-02-21T08:54:34;49.30;;;25.13;;
6757;SDS011;3416;53.074;8.822;2024-02-21T08:57:01;39.95;;;23.38;;
6757;SDS011;3416;53.074;8.822;2024-02-21T08:59:29;39.95;;;24.40;;
6757;SDS011;3416;53.074;8.822;2024-02-21T09:01:57;35.17;;;25.27;;
6757;SDS011;3416;53.074;8.822;2024-02-21T09:04:24;36.60;;;21.27;;
6757;SDS011;3416;53.074;8.822;2024-02-21T09:06:51;46.50;;;25.77;;
6757;SDS011;3416;53.074;8.822;2024-02-21T09:09:18;29.38;;;22.83;;
6757;SDS011;3416;53.074;8.822;2024-02-21T09:11:45;46.90;;;24.17;;
6757;SDS011;3416;53.074;8.822;2024-02-21T09:14:12;37.65;;;23.50;;
6757;SDS011;3416;53.074;8.822;2024-02-21T09:16:40;39.22;;;23.27;;
6757;SDS011;3416;53.074;8.822;2024-02-21T09:19:07;40.08;;;23.58;;
6757;SDS011;3416;53.074;8.822;2024-02-21T09:21:36;30.48;;;24.00;;
6757;SDS011;3416;53.074;8.822;2024-02-21T09:24:03;37.17;;;21.98;;
6757;SDS011;3416;53.074;8.822;2024-02-21T09:26:32;34.97;;;21.15;;
6757;SDS011;3416;53.074;8.822;2024-02-21T09:28:58;34.65;;;21.45;;
6757;SDS011;3416;53.074;8.822;2024-02-21T09:31:26;32.83;;;24.15;;
6757;SDS011;3416;53.074;8.822;2024-02-21T09:33:54;30.02;;;20.17;;
6757;SDS011;3416;53.074;8.822;2024-02-21T09:36:21;31.38;;;20.83;;
6757;SDS011;3416;53.074;8.822;2024-02-21T09:38:48;31.02;;;18.33;;
6757;SDS011;3416;53.074;8.822;2024-02-21T09:41:15;34.58;;;20.65;;
6757;SDS011;3416;53.074;8.822;2024-02-21T09:43:43;37.70;;;22.13;;
6757;SDS011;3416;53.074;8.822;2024-02-21T09:46:13;33.05;;;19.45;;
6757;SDS011;3416;53.074;8.822;2024-02-21T09:48:48;33.55;;;19.83;;
6757;SDS011;3416;53.074;8.822;2024-02-21T09:51:26;27.85;;;17.85;;
6757;SDS011;3416;53.074;8.822;2024-02-21T09:53:55;32.13;;;17.83;;
6757;SDS011;3416;53.074;8.822;2024-02-21T09:56:23;31.08;;;17.90;;
6757;SDS011;3416;53.074;8.822;2024-02-21T09:58:50;21.55;;;15.07;;
6757;SDS011;3416;53.074;8.822;2024-02-21T10:01:18;33.60;;;17.45;;
6757;SDS011;3416;53.074;8.822;2024-02-21T10:03:45;29.85;;;16.95;;
6757;SDS011;3416;53.074;8.822;2024-02-21T10:06:14;28.05;;;18.10;;
6757;SDS011;3416;53.074;8.822;2024-02-21T10:08:41;32.58;;;18.15;;
6757;SDS011;3416;53.074;8.822;2024-02-21T10:11:08;26.02;;;17.13;;
6757;SDS011;3416;53.074;8.822;2024-02-21T10:13:35;22.63;;;15.75;;
6757;SDS011;3416;53.074;8.822;2024-02-21T10:16:04;29.45;;;17.70;;
6757;SDS011;3416;53.074;8.822;2024-02-21T10:18:31;26.05;;;17.30;;
6757;SDS011;3416;53.074;8.822;2024-02-21T10:21:02;33.33;;;16.85;;
6757;SDS011;3416;53.074;8.822;2024-02-21T10:23:41;27.42;;;18.45;;
6757;SDS011;3416;53.074;8.822;2024-02-21T10:26:09;26.00;;;16.15;;
6757;SDS011;3416;53.074;8.822;2024-02-21T10:28:36;31.70;;;16.48;;
6757;SDS011;3416;53.074;8.822;2024-02-21T10:31:07;31.08;;;16.70;;
6757;SDS011;3416;53.074;8.822;2024-02-21T10:33:35;24.98;;;17.50;;
6757;SDS011;3416;53.074;8.822;2024-02-21T10:36:08;22.23;;;14.75;;
6757;SDS011;3416;53.074;8.822;2024-02-21T10:38:36;36.75;;;15.60;;
6757;SDS011;3416;53.074;8.822;2024-02-21T10:41:05;28.13;;;15.85;;
6757;SDS011;3416;53.074;8.822;2024-02-21T10:43:35;20.20;;;15.20;;
6757;SDS011;3416;53.074;8.822;2024-02-21T10:46:05;24.70;;;15.85;;
6757;SDS011;3416;53.074;8.822;2024-02-21T10:48:36;23.88;;;15.20;;
6757;SDS011;3416;53.074;8.822;2024-02-21T10:51:13;25.48;;;16.13;;
6757;SDS011;3416;53.074;8.822;2024-02-21T10:53:44;23.42;;;16.63;;
6757;SDS011;3416;53.074;8.822;2024-02-21T10:56:20;18.23;;;13.23;;
6757;SDS011;3416;53.074;8.822;2024-02-21T10:58:50;20.13;;;14.88;;
6757;SDS011;3416;53.074;8.822;2024-02-21T11:01:17;21.48;;;14.40;;
6757;SDS011;3416;53.074;8.822;2024-02-21T11:03:45;24.52;;;15.63;;
6757;SDS011;3416;53.074;8.822;2024-02-21T11:06:14;21.35;;;13.80;;
6757;SDS011;3416;53.074;8.822;2024-02-21T11:08:43;20.15;;;14.38;;
6757;SDS011;3416;53.074;8.822;2024-02-21T11:11:12;17.08;;;12.35;;
6757;SDS011;3416;53.074;8.822;2024-02-21T11:13:45;19.45;;;13.63;;
6757;SDS011;3416;53.074;8.822;2024-02-21T11:16:21;18.48;;;13.23;;
6757;SDS011;3416;53.074;8.822;2024-02-21T11:18:49;19.73;;;12.90;;
6757;SDS011;3416;53.074;8.822;2024-02-21T11:21:16;21.88;;;13.30;;
6757;SDS011;3416;53.074;8.822;2024-02-21T11:23:43;13.50;;;11.15;;
6757;SDS011;3416;53.074;8.822;2024-02-21T11:26:10;16.70;;;12.00;;
6757;SDS011;3416;53.074;8.822;2024-02-21T11:28:55;15.18;;;12.00;;
6757;SDS011;3416;53.074;8.822;2024-02-21T11:31:22;19.42;;;12.75;;
6757;SDS011;3416;53.074;8.822;2024-02-21T11:33:51;16.98;;;12.00;;
6757;SDS011;3416;53.074;8.822;2024-02-21T11:36:23;15.23;;;10.90;;
6757;SDS011;3416;53.074;8.822;2024-02-21T11:38:50;22.70;;;10.73;;
6757;SDS011;3416;53.074;8.822;2024-02-21T11:41:18;20.05;;;12.27;;
6757;SDS011;3416;53.074;8.822;2024-02-21T11:43:47;19.38;;;10.88;;
6757;SDS011;3416;53.074;8.822;2024-02-21T11:46:16;15.75;;;11.32;;
6757;SDS011;3416;53.074;8.822;2024-02-21T11:48:43;15.75;;;9.93;;
6757;SDS011;3416;53.074;8.822;2024-02-21T11:51:20;11.23;;;10.00;;
6757;SDS011;3416;53.074;8.822;2024-02-21T11:53:50;16.83;;;9.93;;
6757;SDS011;3416;53.074;8.822;2024-02-21T11:56:17;13.40;;;9.43;;
6757;SDS011;3416;53.074;8.822;2024-02-21T11:58:46;16.63;;;10.65;;
6757;SDS011;3416;53.074;8.822;2024-02-21T12:01:13;14.73;;;11.43;;
6757;SDS011;3416;53.074;8.822;2024-02-21T12:03:41;16.92;;;9.50;;
6757;SDS011;3416;53.074;8.822;2024-02-21T12:06:15;14.15;;;9.60;;
6757;SDS011;3416;53.074;8.822;2024-02-21T12:08:45;14.80;;;8.90;;
6757;SDS011;3416;53.074;8.822;2024-02-21T12:11:16;21.75;;;10.32;;
6757;SDS011;3416;53.074;8.822;2024-02-21T12:13:44;19.60;;;8.77;;
6757;SDS011;3416;53.074;8.822;2024-02-21T12:16:14;15.40;;;8.35;;
6757;SDS011;3416;53.074;8.822;2024-02-21T12:18:43;15.15;;;8.18;;
6757;SDS011;3416;53.074;8.822;2024-02-21T12:21:10;16.17;;;8.50;;
6757;SDS011;3416;53.074;8.822;2024-02-21T12:23:37;15.40;;;7.63;;
6757;SDS011;3416;53.074;8.822;2024-02-21T12:26:05;14.52;;;7.38;;
6757;SDS011;3416;53.074;8.822;2024-02-21T12:28:33;16.75;;;9.38;;
6757;SDS011;3416;53.074;8.822;2024-02-21T12:31:01;15.30;;;7.50;;
6757;SDS011;3416;53.074;8.822;2024-02-21T12:33:29;11.65;;;7.60;;
6757;SDS011;3416;53.074;8.822;2024-02-21T12:35:58;14.25;;;7.93;;
6757;SDS011;3416;53.074;8.822;2024-02-21T12:38:25;12.60;;;7.38;;
6757;SDS011;3416;53.074;8.822;2024-02-21T12:40:52;12.90;;;6.95;;
6757;SDS011;3416;53.074;8.822;2024-02-21T12:43:19;12.45;;;6.60;;
6757;SDS011;3416;53.074;8.822;2024-02-21T12:45:47;7.10;;;6.05;;
6757;SDS011;3416;53.074;8.822;2024-02-21T12:48:16;12.02;;;6.63;;
6757;SDS011;3416;53.074;8.822;2024-02-21T12:50:47;14.13;;;6.88;;
6757;SDS011;3416;53.074;8.822;2024-02-21T12:53:16;11.25;;;6.97;;
6757;SDS011;3416;53.074;8.822;2024-02-21T12:55:44;9.85;;;5.97;;
6757;SDS011;3416;53.074;8.822;2024-02-21T12:58:11;12.27;;;7.22;;
6757;SDS011;3416;53.074;8.822;2024-02-21T13:00:40;11.75;;;7.15;;
6757;SDS011;3416;53.074;8.822;2024-02-21T13:03:07;10.02;;;5.60;;
6757;SDS011;3416;53.074;8.822;2024-02-21T13:05:36;13.02;;;6.68;;
6757;SDS011;3416;53.074;8.822;2024-02-21T13:08:04;9.65;;;6.22;;
6757;SDS011;3416;53.074;8.822;2024-02-21T13:10:31;15.38;;;6.10;;
6757;SDS011;3416;53.074;8.822;2024-02-21T13:12:59;11.30;;;5.88;;
6757;SDS011;3416;53.074;8.822;2024-02-21T13:15:27;11.88;;;5.95;;
6757;SDS011;3416;53.074;8.822;2024-02-21T13:17:54;7.47;;;5.80;;
6757;SDS011;3416;53.074;8.822;2024-02-21T13:20:24;9.88;;;6.00;;
6757;SDS011;3416;53.074;8.822;2024-02-21T13:22:53;14.23;;;7.22;;
6757;SDS011;3416;53.074;8.822;2024-02-21T13:25:20;9.05;;;6.93;;
6757;SDS011;3416;53.074;8.822;2024-02-21T13:27:47;10.02;;;7.85;;
6757;SDS011;3416;53.074;8.822;2024-02-21T13:30:15;12.23;;;9.02;;
6757;SDS011;3416;53.074;8.822;2024-02-21T13:32:42;8.27;;;7.47;;
6757;SDS011;3416;53.074;8.822;2024-02-21T13:35:12;9.95;;;8.10;;
6757;SDS011;3416;53.074;8.822;2024-02-21T13:37:39;14.05;;;9.48;;
6757;SDS011;3416;53.074;8.822;2024-02-21T13:40:08;12.73;;;8.70;;
6757;SDS011;3416;53.074;8.822;2024-02-21T13:42:35;14.10;;;9.23;;
6757;SDS011;3416;53.074;8.822;2024-02-21T13:45:04;13.23;;;10.00;;
6757;SDS011;3416;53.074;8.822;2024-02-21T13:47:32;11.65;;;9.57;;
6757;SDS011;3416;53.074;8.822;2024-02-21T13:50:01;9.95;;;8.38;;
6757;SDS011;3416;53.074;8.822;2024-02-21T13:52:29;11.15;;;9.52;;
6757;SDS011;3416;53.074;8.822;2024-02-21T13:54:56;9.15;;;7.85;;
6757;SDS011;3416;53.074;8.822;2024-02-21T13:57:25;9.98;;;8.98;;
6757;SDS011;3416;53.074;8.822;2024-02-21T13:59:52;10.43;;;8.95;;
6757;SDS011;3416;53.074;8.822;2024-02-21T14:02:19;13.65;;;9.35;;
6757;SDS011;3416;53.074;8.822;2024-02-21T14:04:46;10.70;;;9.60;;
6757;SDS011;3416;53.074;8.822;2024-02-21T14:07:14;12.98;;;11.02;;
6757;SDS011;3416;53.074;8.822;2024-02-21T14:09:42;14.60;;;10.10;;
6757;SDS011;3416;53.074;8.822;2024-02-21T14:12:09;10.70;;;8.88;;
6757;SDS011;3416;53.074;8.822;2024-02-21T14:14:38;19.27;;;10.48;;
6757;SDS011;3416;53.074;8.822;2024-02-21T14:17:06;12.38;;;9.95;;
6757;SDS011;3416;53.074;8.822;2024-02-21T14:19:33;11.90;;;9.70;;
6757;SDS011;3416;53.074;8.822;2024-02-21T14:22:00;10.88;;;8.73;;
6757;SDS011;3416;53.074;8.822;2024-02-21T14:24:27;10.13;;;8.82;;
6757;SDS011;3416;53.074;8.822;2024-02-21T14:26:54;14.20;;;9.65;;
6757;SDS011;3416;53.074;8.822;2024-02-21T14:29:21;11.68;;;9.48;;
6757;SDS011;3416;53.074;8.822;2024-02-21T14:31:50;14.15;;;9.35;;
6757;SDS011;3416;53.074;8.822;2024-02-21T14:34:17;12.82;;;9.73;;
6757;SDS011;3416;53.074;8.822;2024-02-21T14:36:45;12.23;;;8.77;;
6757;SDS011;3416;53.074;8.822;2024-02-21T14:39:11;13.18;;;8.63;;
6757;SDS011;3416;53.074;8.822;2024-02-21T14:41:40;13.15;;;8.07;;
6757;SDS011;3416;53.074;8.822;2024-02-21T14:44:08;12.43;;;7.15;;
6757;SDS011;3416;53.074;8.822;2024-02-21T14:46:35;11.52;;;6.88;;
6757;SDS011;3416;53.074;8.822;2024-02-21T14:49:04;7.80;;;6.63;;
6757;SDS011;3416;53.074;8.822;2024-02-21T14:51:31;9.48;;;6.95;;
6757;SDS011;3416;53.074;8.822;2024-02-21T14:53:59;8.93;;;7.68;;
6757;SDS011;3416;53.074;8.822;2024-02-21T14:56:26;7.97;;;7.10;;
6757;SDS011;3416;53.074;8.822;2024-02-21T14:58:53;6.85;;;6.15;;
6757;SDS011;3416;53.074;8.822;2024-02-21T15:01:20;10.13;;;6.95;;
6757;SDS011;3416;53.074;8.822;2024-02-21T15:03:47;10.60;;;7.75;;
6757;SDS011;3416;53.074;8.822;2024-02-21T15:06:15;9.65;;;7.20;;
6757;SDS011;3416;53.074;8.822;2024-02-21T15:08:42;12.00;;;6.32;;
6757;SDS011;3416;53.074;8.822;2024-02-21T15:11:09;8.77;;;6.30;;
6757;SDS011;3416;53.074;8.822;2024-02-21T15:13:36;6.78;;;6.07;;
6757;SDS011;3416;53.074;8.822;2024-02-21T15:16:03;8.45;;;6.60;;
6757;SDS011;3416;53.074;8.822;2024-02-21T15:18:31;10.07;;;6.53;;
6757;SDS011;3416;53.074;8.822;2024-02-21T15:20:58;10.85;;;6.95;;
6757;SDS011;3416;53.074;8.822;2024-02-21T15:23:27;16.00;;;6.85;;
6757;SDS011;3416;53.074;8.822;2024-02-21T15:25:54;13.65;;;6.50;;
6757;SDS011;3416;53.074;8.822;2024-02-21T15:28:22;9.23;;;6.55;;
6757;SDS011;3416;53.074;8.822;2024-02-21T15:30:49;8.48;;;7.20;;
6757;SDS011;3416;53.074;8.822;2024-02-21T15:33:16;13.38;;;8.52;;
6757;SDS011;3416;53.074;8.822;2024-02-21T15:35:44;11.50;;;7.60;;
6757;SDS011;3416;53.074;8.822;2024-02-21T15:38:11;16.15;;;9.88;;
6757;SDS011;3416;53.074;8.822;2024-02-21T15:40:40;15.05;;;10.02;;
6757;SDS011;3416;53.074;8.822;2024-02-21T15:43:07;17.58;;;10.68;;
6757;SDS011;3416;53.074;8.822;2024-02-21T15:45:34;13.75;;;10.25;;
6757;SDS011;3416;53.074;8.822;2024-02-21T15:48:01;11.68;;;9.70;;
6757;SDS011;3416;53.074;8.822;2024-02-21T15:50:29;16.92;;;9.45;;
6757;SDS011;3416;53.074;8.822;2024-02-21T15:52:56;17.75;;;10.25;;
6757;SDS011;3416;53.074;8.822;2024-02-21T15:55:23;15.40;;;10.60;;
6757;SDS011;3416;53.074;8.822;2024-02-21T15:57:51;15.68;;;10.35;;
6757;SDS011;3416;53.074;8.822;2024-02-21T16:00:18;15.38;;;10.95;;
6757;SDS011;3416;53.074;8.822;2024-02-21T16:02:47;12.43;;;9.80;;
6757;SDS011;3416;53.074;8.822;2024-02-21T16:05:14;15.80;;;9.63;;
6757;SDS011;3416;53.074;8.822;2024-02-21T16:07:41;18.75;;;11.98;;
6757;SDS011;3416;53.074;8.822;2024-02-21T16:10:09;18.23;;;12.43;;
6757;SDS011;3416;53.074;8.822;2024-02-21T16:12:36;17.50;;;11.35;;
6757;SDS011;3416;53.074;8.822;2024-02-21T16:15:08;13.15;;;10.68;;
6757;SDS011;3416;53.074;8.822;2024-02-21T16:17:36;11.30;;;9.93;;
6757;SDS011;3416;53.074;8.822;2024-02-21T16:20:05;12.82;;;9.35;;